sensor_id;sensor_type;location;lat;lon;timestamp;P1;durP1;ratioP1;P2;durP2;ratioP2
579;SDS011;276;48.392;9.950;2023-07-31T00:01:11;2.33;;;2.03;;
579;SDS011;276;48.392;9.950;2023-07-31T00:03:39;2.87;;;2.60;;
579;SDS011;276;48.392;9.950;2023-07-31T00:06:07;2.83;;;2.30;;
579;SDS011;276;48.392;9.950;2023-07-31T00:08:35;4.70;;;2.17;;
579;SDS011;276;48.392;9.950;2023-07-31T00:11:01;2.40;;;2.03;;
579;SDS011;276;48.392;9.950;2023-07-31T00:13:29;2.63;;;2.40;;
579;SDS011;276;48.392;9.950;2023-07-31T00:15:54;5.30;;;2.20;;
579;SDS011;276;48.392;9.950;2023-07-31T00:18:22;6.27;;;2.40;;
579;SDS011;276;48.392;9.950;2023-07-31T00:20:48;2.43;;;2.20;;
579;SDS011;276;48.392;9.950;2023-07-31T00:23:18;3.13;;;2.30;;
579;SDS011;276;48.392;9.950;2023-07-31T00:25:43;2.80;;;1.80;;
579;SDS011;276;48.392;9.950;2023-07-31T00:28:11;3.90;;;2.50;;
579;SDS011;276;48.392;9.950;2023-07-31T00:30:37;2.97;;;2.03;;
579;SDS011;276;48.392;9.950;2023-07-31T00:33:03;6.60;;;2.33;;
579;SDS011;276;48.392;9.950;2023-07-31T00:35:28;2.07;;;1.83;;
579;SDS011;276;48.392;9.950;2023-07-31T00:37:54;4.67;;;2.80;;
579;SDS011;276;48.392;9.950;2023-07-31T00:40:22;3.47;;;2.47;;
579;SDS011;276;48.392;9.950;2023-07-31T00:42:48;6.03;;;2.30;;
579;SDS011;276;48.392;9.950;2023-07-31T00:45:14;2.20;;;2.00;;
579;SDS011;276;48.392;9.950;2023-07-31T00:47:41;3.00;;;2.47;;
579;SDS011;276;48.392;9.950;2023-07-31T00:50:07;3.70;;;2.00;;
579;SDS011;276;48.392;9.950;2023-07-31T00:52:35;3.57;;;2.47;;
579;SDS011;276;48.392;9.950;2023-07-31T00:55:04;5.07;;;1.83;;
579;SDS011;276;48.392;9.950;2023-07-31T00:57:30;5.13;;;2.20;;
579;SDS011;276;48.392;9.950;2023-07-31T00:59:58;3.50;;;2.53;;
579;SDS011;276;48.392;9.950;2023-07-31T01:02:23;2.30;;;1.90;;
579;SDS011;276;48.392;9.950;2023-07-31T01:04:49;3.53;;;1.93;;
579;SDS011;276;48.392;9.950;2023-07-31T01:07:22;2.73;;;2.20;;
579;SDS011;276;48.392;9.950;2023-07-31T01:12:27;4.27;;;2.20;;
579;SDS011;276;48.392;9.950;2023-07-31T01:15:08;3.60;;;2.00;;
579;SDS011;276;48.392;9.950;2023-07-31T01:17:36;2.70;;;2.00;;
579;SDS011;276;48.392;9.950;2023-07-31T01:20:03;2.93;;;2.57;;
579;SDS011;276;48.392;9.950;2023-07-31T01:28:02;6.17;;;2.40;;
579;SDS011;276;48.392;9.950;2023-07-31T01:30:37;3.83;;;2.10;;
579;SDS011;276;48.392;9.950;2023-07-31T01:33:08;2.53;;;2.00;;
579;SDS011;276;48.392;9.950;2023-07-31T01:35:34;3.53;;;2.30;;
579;SDS011;276;48.392;9.950;2023-07-31T01:38:01;1.70;;;1.60;;
579;SDS011;276;48.392;9.950;2023-07-31T01:40:29;2.80;;;2.03;;
579;SDS011;276;48.392;9.950;2023-07-31T01:42:55;5.00;;;2.10;;
579;SDS011;276;48.392;9.950;2023-07-31T01:45:21;3.30;;;2.00;;
579;SDS011;276;48.392;9.950;2023-07-31T01:47:46;6.73;;;2.10;;
579;SDS011;276;48.392;9.950;2023-07-31T01:50:12;2.07;;;1.83;;
579;SDS011;276;48.392;9.950;2023-07-31T01:52:40;2.63;;;2.10;;
579;SDS011;276;48.392;9.950;2023-07-31T01:55:05;2.77;;;1.80;;
579;SDS011;276;48.392;9.950;2023-07-31T01:57:31;2.60;;;2.40;;
579;SDS011;276;48.392;9.950;2023-07-31T01:59:56;2.83;;;1.73;;
579;SDS011;276;48.392;9.950;2023-07-31T02:02:22;2.23;;;1.77;;
579;SDS011;276;48.392;9.950;2023-07-31T02:04:48;2.50;;;2.00;;
579;SDS011;276;48.392;9.950;2023-07-31T02:07:14;2.73;;;2.40;;
579;SDS011;276;48.392;9.950;2023-07-31T02:09:42;4.63;;;2.30;;
579;SDS011;276;48.392;9.950;2023-07-31T02:12:11;4.37;;;2.40;;
579;SDS011;276;48.392;9.950;2023-07-31T02:14:39;2.93;;;1.60;;
579;SDS011;276;48.392;9.950;2023-07-31T02:17:05;5.07;;;2.00;;
579;SDS011;276;48.392;9.950;2023-07-31T02:19:30;1.87;;;1.77;;
579;SDS011;276;48.392;9.950;2023-07-31T02:21:56;2.17;;;1.97;;
579;SDS011;276;48.392;9.950;2023-07-31T02:24:22;2.77;;;2.20;;
579;SDS011;276;48.392;9.950;2023-07-31T02:26:47;3.73;;;2.17;;
579;SDS011;276;48.392;9.950;2023-07-31T02:29:13;5.50;;;2.10;;
579;SDS011;276;48.392;9.950;2023-07-31T02:31:41;3.33;;;2.37;;
579;SDS011;276;48.392;9.950;2023-07-31T02:34:09;4.10;;;2.40;;
579;SDS011;276;48.392;9.950;2023-07-31T02:36:34;4.07;;;2.23;;
579;SDS011;276;48.392;9.950;2023-07-31T02:39:00;5.13;;;2.30;;
579;SDS011;276;48.392;9.950;2023-07-31T02:41:26;2.53;;;2.17;;
579;SDS011;276;48.392;9.950;2023-07-31T02:43:53;2.33;;;1.90;;
579;SDS011;276;48.392;9.950;2023-07-31T02:46:21;3.70;;;2.23;;
579;SDS011;276;48.392;9.950;2023-07-31T02:48:49;2.70;;;1.80;;
579;SDS011;276;48.392;9.950;2023-07-31T02:51:15;3.33;;;2.90;;
579;SDS011;276;48.392;9.950;2023-07-31T02:53:46;5.13;;;2.40;;
579;SDS011;276;48.392;9.950;2023-07-31T02:56:12;2.37;;;1.87;;
579;SDS011;276;48.392;9.950;2023-07-31T02:58:38;2.87;;;2.57;;
579;SDS011;276;48.392;9.950;2023-07-31T03:01:06;2.53;;;2.33;;
579;SDS011;276;48.392;9.950;2023-07-31T03:03:31;5.53;;;2.60;;
579;SDS011;276;48.392;9.950;2023-07-31T03:05:57;4.20;;;2.27;;
579;SDS011;276;48.392;9.950;2023-07-31T03:08:25;2.77;;;2.13;;
579;SDS011;276;48.392;9.950;2023-07-31T03:10:53;3.07;;;2.53;;
579;SDS011;276;48.392;9.950;2023-07-31T03:13:18;3.67;;;1.87;;
579;SDS011;276;48.392;9.950;2023-07-31T03:15:46;3.00;;;2.00;;
579;SDS011;276;48.392;9.950;2023-07-31T03:18:12;2.93;;;2.60;;
579;SDS011;276;48.392;9.950;2023-07-31T03:20:42;2.20;;;2.00;;
579;SDS011;276;48.392;9.950;2023-07-31T03:23:09;2.87;;;2.27;;
579;SDS011;276;48.392;9.950;2023-07-31T03:25:34;2.77;;;2.50;;
579;SDS011;276;48.392;9.950;2023-07-31T03:28:00;1.40;;;1.30;;
579;SDS011;276;48.392;9.950;2023-07-31T03:30:26;3.80;;;2.50;;
579;SDS011;276;48.392;9.950;2023-07-31T03:32:54;3.87;;;1.90;;
579;SDS011;276;48.392;9.950;2023-07-31T03:35:22;1.90;;;1.80;;
579;SDS011;276;48.392;9.950;2023-07-31T03:37:47;2.90;;;2.60;;
579;SDS011;276;48.392;9.950;2023-07-31T03:40:13;2.73;;;2.00;;
579;SDS011;276;48.392;9.950;2023-07-31T03:42:39;3.03;;;1.93;;
579;SDS011;276;48.392;9.950;2023-07-31T03:45:07;2.23;;;2.00;;
579;SDS011;276;48.392;9.950;2023-07-31T03:47:33;3.43;;;2.23;;
579;SDS011;276;48.392;9.950;2023-07-31T03:49:58;6.57;;;3.30;;
579;SDS011;276;48.392;9.950;2023-07-31T03:52:24;2.23;;;2.03;;
579;SDS011;276;48.392;9.950;2023-07-31T03:54:52;3.60;;;2.33;;
579;SDS011;276;48.392;9.950;2023-07-31T03:57:20;3.33;;;2.10;;
579;SDS011;276;48.392;9.950;2023-07-31T03:59:50;3.70;;;2.47;;
579;SDS011;276;48.392;9.950;2023-07-31T04:02:16;4.23;;;3.00;;
579;SDS011;276;48.392;9.950;2023-07-31T04:04:43;4.00;;;2.20;;
579;SDS011;276;48.392;9.950;2023-07-31T04:07:11;3.47;;;2.40;;
579;SDS011;276;48.392;9.950;2023-07-31T04:09:37;3.93;;;2.30;;
579;SDS011;276;48.392;9.950;2023-07-31T04:12:05;3.03;;;2.03;;
579;SDS011;276;48.392;9.950;2023-07-31T04:14:33;4.73;;;4.37;;
579;SDS011;276;48.392;9.950;2023-07-31T04:16:59;7.50;;;5.50;;
579;SDS011;276;48.392;9.950;2023-07-31T04:19:24;4.90;;;4.50;;
579;SDS011;276;48.392;9.950;2023-07-31T04:21:50;4.10;;;3.70;;
579;SDS011;276;48.392;9.950;2023-07-31T04:24:16;12.03;;;5.63;;
579;SDS011;276;48.392;9.950;2023-07-31T04:26:47;4.50;;;4.10;;
579;SDS011;276;48.392;9.950;2023-07-31T04:29:15;3.93;;;3.47;;
579;SDS011;276;48.392;9.950;2023-07-31T04:31:41;5.13;;;2.60;;
579;SDS011;276;48.392;9.950;2023-07-31T04:34:06;2.90;;;2.30;;
579;SDS011;276;48.392;9.950;2023-07-31T04:36:33;5.50;;;4.40;;
579;SDS011;276;48.392;9.950;2023-07-31T04:39:02;8.07;;;5.87;;
579;SDS011;276;48.392;9.950;2023-07-31T04:41:28;9.33;;;8.47;;
579;SDS011;276;48.392;9.950;2023-07-31T04:43:53;8.50;;;7.70;;
579;SDS011;276;48.392;9.950;2023-07-31T04:46:21;6.27;;;5.63;;
579;SDS011;276;48.392;9.950;2023-07-31T04:48:47;4.70;;;4.17;;
579;SDS011;276;48.392;9.950;2023-07-31T04:51:15;8.20;;;5.70;;
579;SDS011;276;48.392;9.950;2023-07-31T04:53:40;6.67;;;6.03;;
579;SDS011;276;48.392;9.950;2023-07-31T04:56:06;7.83;;;7.07;;
579;SDS011;276;48.392;9.950;2023-07-31T04:58:32;7.17;;;6.47;;
579;SDS011;276;48.392;9.950;2023-07-31T05:00:57;6.10;;;5.50;;
579;SDS011;276;48.392;9.950;2023-07-31T05:03:23;4.30;;;3.90;;
579;SDS011;276;48.392;9.950;2023-07-31T05:05:49;6.73;;;6.13;;
579;SDS011;276;48.392;9.950;2023-07-31T05:08:15;12.47;;;11.20;;
579;SDS011;276;48.392;9.950;2023-07-31T05:10:43;9.03;;;8.23;;
579;SDS011;276;48.392;9.950;2023-07-31T05:13:09;5.87;;;5.10;;
579;SDS011;276;48.392;9.950;2023-07-31T05:15:36;5.37;;;4.60;;
579;SDS011;276;48.392;9.950;2023-07-31T05:18:02;5.27;;;4.80;;
579;SDS011;276;48.392;9.950;2023-07-31T05:20:28;6.00;;;4.73;;
579;SDS011;276;48.392;9.950;2023-07-31T05:22:53;3.50;;;3.20;;
579;SDS011;276;48.392;9.950;2023-07-31T05:25:19;2.97;;;2.67;;
579;SDS011;276;48.392;9.950;2023-07-31T05:27:45;4.70;;;4.30;;
579;SDS011;276;48.392;9.950;2023-07-31T05:30:13;4.23;;;3.50;;
579;SDS011;276;48.392;9.950;2023-07-31T05:32:38;4.57;;;3.77;;
579;SDS011;276;48.392;9.950;2023-07-31T05:35:04;8.43;;;3.40;;
579;SDS011;276;48.392;9.950;2023-07-31T05:37:32;3.43;;;3.10;;
579;SDS011;276;48.392;9.950;2023-07-31T05:40:00;4.20;;;3.80;;
579;SDS011;276;48.392;9.950;2023-07-31T05:42:28;4.43;;;2.30;;
579;SDS011;276;48.392;9.950;2023-07-31T05:44:54;2.93;;;2.63;;
579;SDS011;276;48.392;9.950;2023-07-31T05:47:19;3.23;;;2.77;;
579;SDS011;276;48.392;9.950;2023-07-31T05:49:45;2.40;;;2.20;;
579;SDS011;276;48.392;9.950;2023-07-31T05:52:10;2.70;;;2.37;;
579;SDS011;276;48.392;9.950;2023-07-31T05:54:36;2.47;;;2.27;;
579;SDS011;276;48.392;9.950;2023-07-31T05:57:02;2.30;;;1.63;;
579;SDS011;276;48.392;9.950;2023-07-31T05:59:27;5.73;;;2.90;;
579;SDS011;276;48.392;9.950;2023-07-31T06:01:58;4.17;;;3.37;;
579;SDS011;276;48.392;9.950;2023-07-31T06:04:23;3.47;;;2.37;;
579;SDS011;276;48.392;9.950;2023-07-31T06:06:54;3.97;;;2.73;;
579;SDS011;276;48.392;9.950;2023-07-31T06:09:19;3.57;;;1.87;;
579;SDS011;276;48.392;9.950;2023-07-31T06:11:47;4.10;;;2.57;;
579;SDS011;276;48.392;9.950;2023-07-31T06:14:16;2.63;;;2.43;;
579;SDS011;276;48.392;9.950;2023-07-31T06:16:41;2.43;;;2.33;;
579;SDS011;276;48.392;9.950;2023-07-31T06:19:09;2.57;;;2.30;;
579;SDS011;276;48.392;9.950;2023-07-31T06:21:34;2.90;;;2.70;;
579;SDS011;276;48.392;9.950;2023-07-31T06:24:02;2.43;;;2.23;;
579;SDS011;276;48.392;9.950;2023-07-31T06:26:28;6.17;;;2.63;;
579;SDS011;276;48.392;9.950;2023-07-31T06:28:54;4.43;;;2.87;;
579;SDS011;276;48.392;9.950;2023-07-31T06:31:19;3.90;;;2.90;;
579;SDS011;276;48.392;9.950;2023-07-31T06:33:48;2.70;;;2.50;;
579;SDS011;276;48.392;9.950;2023-07-31T06:36:14;3.70;;;2.50;;
579;SDS011;276;48.392;9.950;2023-07-31T06:38:39;2.33;;;2.17;;
579;SDS011;276;48.392;9.950;2023-07-31T06:41:05;2.60;;;2.40;;
579;SDS011;276;48.392;9.950;2023-07-31T06:43:31;2.83;;;2.13;;
579;SDS011;276;48.392;9.950;2023-07-31T06:46:04;4.30;;;2.83;;
579;SDS011;276;48.392;9.950;2023-07-31T06:48:32;3.90;;;2.93;;
579;SDS011;276;48.392;9.950;2023-07-31T06:50:58;2.63;;;2.43;;
579;SDS011;276;48.392;9.950;2023-07-31T06:53:25;3.03;;;2.73;;
579;SDS011;276;48.392;9.950;2023-07-31T06:55:50;3.30;;;2.70;;
579;SDS011;276;48.392;9.950;2023-07-31T06:58:17;4.40;;;2.30;;
579;SDS011;276;48.392;9.950;2023-07-31T07:00:43;2.53;;;2.33;;
579;SDS011;276;48.392;9.950;2023-07-31T07:03:08;3.07;;;2.40;;
579;SDS011;276;48.392;9.950;2023-07-31T07:05:34;3.10;;;2.20;;
579;SDS011;276;48.392;9.950;2023-07-31T07:08:00;3.40;;;2.50;;
579;SDS011;276;48.392;9.950;2023-07-31T07:10:25;2.77;;;2.47;;
579;SDS011;276;48.392;9.950;2023-07-31T07:12:51;2.43;;;2.23;;
579;SDS011;276;48.392;9.950;2023-07-31T07:15:17;2.70;;;2.40;;
579;SDS011;276;48.392;9.950;2023-07-31T07:17:43;4.00;;;2.37;;
579;SDS011;276;48.392;9.950;2023-07-31T07:20:08;2.90;;;2.33;;
579;SDS011;276;48.392;9.950;2023-07-31T07:22:34;4.13;;;2.30;;
579;SDS011;276;48.392;9.950;2023-07-31T07:25:00;2.50;;;2.10;;
579;SDS011;276;48.392;9.950;2023-07-31T07:27:30;2.80;;;2.20;;
579;SDS011;276;48.392;9.950;2023-07-31T07:29:58;3.20;;;2.37;;
579;SDS011;276;48.392;9.950;2023-07-31T07:32:23;2.20;;;2.00;;
579;SDS011;276;48.392;9.950;2023-07-31T07:34:49;3.20;;;2.40;;
579;SDS011;276;48.392;9.950;2023-07-31T07:37:15;4.07;;;3.13;;
579;SDS011;276;48.392;9.950;2023-07-31T07:39:41;8.90;;;3.30;;
579;SDS011;276;48.392;9.950;2023-07-31T07:42:07;2.00;;;1.90;;
579;SDS011;276;48.392;9.950;2023-07-31T07:44:32;10.23;;;2.70;;
579;SDS011;276;48.392;9.950;2023-07-31T07:46:58;2.90;;;2.23;;
579;SDS011;276;48.392;9.950;2023-07-31T07:49:26;2.50;;;2.10;;
579;SDS011;276;48.392;9.950;2023-07-31T07:51:54;2.57;;;2.37;;
579;SDS011;276;48.392;9.950;2023-07-31T07:54:20;4.10;;;2.40;;
579;SDS011;276;48.392;9.950;2023-07-31T07:56:48;2.70;;;2.20;;
579;SDS011;276;48.392;9.950;2023-07-31T07:59:18;6.50;;;2.60;;
579;SDS011;276;48.392;9.950;2023-07-31T08:01:46;5.20;;;3.20;;
579;SDS011;276;48.392;9.950;2023-07-31T08:04:12;3.60;;;2.07;;
579;SDS011;276;48.392;9.950;2023-07-31T08:06:38;4.80;;;2.43;;
579;SDS011;276;48.392;9.950;2023-07-31T08:09:06;2.90;;;2.47;;
579;SDS011;276;48.392;9.950;2023-07-31T08:11:32;3.07;;;2.17;;
579;SDS011;276;48.392;9.950;2023-07-31T08:14:00;3.63;;;2.43;;
579;SDS011;276;48.392;9.950;2023-07-31T08:16:28;4.60;;;2.83;;
579;SDS011;276;48.392;9.950;2023-07-31T08:18:54;3.60;;;2.20;;
579;SDS011;276;48.392;9.950;2023-07-31T08:21:20;4.80;;;2.30;;
579;SDS011;276;48.392;9.950;2023-07-31T08:23:49;2.87;;;2.47;;
579;SDS011;276;48.392;9.950;2023-07-31T08:26:21;3.03;;;2.20;;
579;SDS011;276;48.392;9.950;2023-07-31T08:28:50;2.90;;;2.50;;
579;SDS011;276;48.392;9.950;2023-07-31T08:31:15;4.13;;;2.50;;
579;SDS011;276;48.392;9.950;2023-07-31T08:33:43;3.40;;;2.30;;
579;SDS011;276;48.392;9.950;2023-07-31T08:36:09;3.20;;;2.90;;
579;SDS011;276;48.392;9.950;2023-07-31T08:38:37;4.30;;;2.70;;
579;SDS011;276;48.392;9.950;2023-07-31T08:41:05;2.33;;;2.10;;
579;SDS011;276;48.392;9.950;2023-07-31T08:43:31;3.67;;;2.10;;
579;SDS011;276;48.392;9.950;2023-07-31T08:45:58;3.17;;;2.40;;
579;SDS011;276;48.392;9.950;2023-07-31T08:48:27;3.10;;;2.80;;
579;SDS011;276;48.392;9.950;2023-07-31T08:50:54;2.50;;;2.00;;
579;SDS011;276;48.392;9.950;2023-07-31T08:53:19;3.03;;;2.50;;
579;SDS011;276;48.392;9.950;2023-07-31T08:55:46;5.60;;;2.90;;
579;SDS011;276;48.392;9.950;2023-07-31T08:58:14;4.00;;;2.63;;
579;SDS011;276;48.392;9.950;2023-07-31T09:00:42;2.70;;;2.50;;
579;SDS011;276;48.392;9.950;2023-07-31T09:03:17;11.03;;;3.80;;
579;SDS011;276;48.392;9.950;2023-07-31T09:05:46;4.00;;;3.03;;
579;SDS011;276;48.392;9.950;2023-07-31T09:08:12;2.80;;;2.17;;
579;SDS011;276;48.392;9.950;2023-07-31T09:10:42;6.10;;;2.80;;
579;SDS011;276;48.392;9.950;2023-07-31T09:13:10;4.23;;;2.60;;
579;SDS011;276;48.392;9.950;2023-07-31T09:15:40;2.23;;;2.03;;
579;SDS011;276;48.392;9.950;2023-07-31T09:18:09;4.37;;;2.93;;
579;SDS011;276;48.392;9.950;2023-07-31T09:20:35;3.57;;;2.33;;
579;SDS011;276;48.392;9.950;2023-07-31T09:25:37;5.87;;;3.10;;
579;SDS011;276;48.392;9.950;2023-07-31T09:28:07;3.43;;;2.20;;
579;SDS011;276;48.392;9.950;2023-07-31T09:30:47;3.30;;;2.33;;
579;SDS011;276;48.392;9.950;2023-07-31T09:33:14;2.77;;;2.53;;
579;SDS011;276;48.392;9.950;2023-07-31T09:35:40;3.00;;;2.70;;
579;SDS011;276;48.392;9.950;2023-07-31T09:40:34;4.07;;;2.23;;
579;SDS011;276;48.392;9.950;2023-07-31T09:43:05;5.20;;;3.07;;
579;SDS011;276;48.392;9.950;2023-07-31T09:45:38;3.43;;;2.47;;
579;SDS011;276;48.392;9.950;2023-07-31T09:50:39;3.13;;;2.50;;
579;SDS011;276;48.392;9.950;2023-07-31T09:53:06;4.67;;;2.40;;
579;SDS011;276;48.392;9.950;2023-07-31T09:55:33;3.30;;;2.50;;
579;SDS011;276;48.392;9.950;2023-07-31T09:58:09;4.13;;;2.47;;
579;SDS011;276;48.392;9.950;2023-07-31T10:00:38;4.03;;;2.40;;
579;SDS011;276;48.392;9.950;2023-07-31T10:03:09;3.70;;;3.27;;
579;SDS011;276;48.392;9.950;2023-07-31T10:08:03;3.10;;;2.80;;
579;SDS011;276;48.392;9.950;2023-07-31T10:10:30;2.33;;;2.13;;
579;SDS011;276;48.392;9.950;2023-07-31T10:12:57;3.40;;;2.80;;
579;SDS011;276;48.392;9.950;2023-07-31T10:15:23;3.37;;;2.60;;
579;SDS011;276;48.392;9.950;2023-07-31T10:17:50;2.50;;;2.30;;
579;SDS011;276;48.392;9.950;2023-07-31T10:20:17;4.70;;;2.63;;
579;SDS011;276;48.392;9.950;2023-07-31T10:22:43;6.87;;;2.40;;
579;SDS011;276;48.392;9.950;2023-07-31T10:25:11;5.60;;;3.00;;
579;SDS011;276;48.392;9.950;2023-07-31T10:27:42;2.30;;;2.10;;
579;SDS011;276;48.392;9.950;2023-07-31T10:30:12;3.53;;;2.43;;
579;SDS011;276;48.392;9.950;2023-07-31T10:32:41;6.90;;;2.80;;
579;SDS011;276;48.392;9.950;2023-07-31T10:35:11;3.17;;;2.30;;
579;SDS011;276;48.392;9.950;2023-07-31T10:37:38;3.53;;;2.67;;
579;SDS011;276;48.392;9.950;2023-07-31T10:40:09;2.97;;;2.70;;
579;SDS011;276;48.392;9.950;2023-07-31T10:42:50;3.10;;;2.47;;
579;SDS011;276;48.392;9.950;2023-07-31T10:47:51;3.93;;;2.20;;
579;SDS011;276;48.392;9.950;2023-07-31T10:50:24;4.93;;;3.50;;
579;SDS011;276;48.392;9.950;2023-07-31T10:52:51;3.50;;;2.60;;
579;SDS011;276;48.392;9.950;2023-07-31T10:55:30;3.60;;;2.57;;
579;SDS011;276;48.392;9.950;2023-07-31T10:58:07;4.27;;;3.27;;
579;SDS011;276;48.392;9.950;2023-07-31T11:00:37;2.77;;;2.40;;
579;SDS011;276;48.392;9.950;2023-07-31T11:03:09;4.10;;;2.60;;
579;SDS011;276;48.392;9.950;2023-07-31T11:08:14;3.83;;;2.50;;
579;SDS011;276;48.392;9.950;2023-07-31T11:10:39;2.60;;;2.40;;
579;SDS011;276;48.392;9.950;2023-07-31T11:13:05;4.50;;;2.57;;
579;SDS011;276;48.392;9.950;2023-07-31T11:15:31;3.00;;;2.60;;
579;SDS011;276;48.392;9.950;2023-07-31T11:17:57;2.20;;;2.00;;
579;SDS011;276;48.392;9.950;2023-07-31T11:20:23;5.47;;;2.20;;
579;SDS011;276;48.392;9.950;2023-07-31T11:22:49;2.73;;;2.20;;
579;SDS011;276;48.392;9.950;2023-07-31T11:25:15;4.67;;;2.77;;
579;SDS011;276;48.392;9.950;2023-07-31T11:27:42;2.40;;;1.90;;
579;SDS011;276;48.392;9.950;2023-07-31T11:30:09;2.23;;;2.03;;
579;SDS011;276;48.392;9.950;2023-07-31T11:32:37;4.80;;;2.70;;
579;SDS011;276;48.392;9.950;2023-07-31T11:35:05;4.90;;;3.07;;
579;SDS011;276;48.392;9.950;2023-07-31T11:37:40;1.80;;;1.67;;
579;SDS011;276;48.392;9.950;2023-07-31T11:40:09;4.97;;;2.00;;
579;SDS011;276;48.392;9.950;2023-07-31T11:42:35;3.90;;;2.40;;
579;SDS011;276;48.392;9.950;2023-07-31T11:45:04;5.63;;;2.70;;
579;SDS011;276;48.392;9.950;2023-07-31T11:47:34;7.80;;;2.53;;
579;SDS011;276;48.392;9.950;2023-07-31T11:50:01;3.70;;;2.30;;
579;SDS011;276;48.392;9.950;2023-07-31T11:52:37;4.07;;;2.10;;
579;SDS011;276;48.392;9.950;2023-07-31T11:55:07;5.60;;;2.73;;
579;SDS011;276;48.392;9.950;2023-07-31T11:57:39;2.63;;;2.20;;
579;SDS011;276;48.392;9.950;2023-07-31T12:00:08;2.33;;;2.00;;
579;SDS011;276;48.392;9.950;2023-07-31T12:02:39;3.20;;;2.67;;
579;SDS011;276;48.392;9.950;2023-07-31T12:05:06;3.50;;;2.50;;
579;SDS011;276;48.392;9.950;2023-07-31T12:10:24;5.13;;;2.93;;
579;SDS011;276;48.392;9.950;2023-07-31T12:13:11;5.80;;;3.23;;
579;SDS011;276;48.392;9.950;2023-07-31T12:15:45;3.03;;;2.80;;
579;SDS011;276;48.392;9.950;2023-07-31T12:18:12;3.63;;;2.80;;
579;SDS011;276;48.392;9.950;2023-07-31T12:20:46;3.73;;;2.50;;
579;SDS011;276;48.392;9.950;2023-07-31T12:23:21;3.27;;;2.67;;
579;SDS011;276;48.392;9.950;2023-07-31T12:26:05;7.73;;;3.30;;
579;SDS011;276;48.392;9.950;2023-07-31T12:28:42;3.97;;;3.10;;
579;SDS011;276;48.392;9.950;2023-07-31T12:31:09;2.47;;;2.20;;
579;SDS011;276;48.392;9.950;2023-07-31T12:33:37;3.40;;;2.43;;
579;SDS011;276;48.392;9.950;2023-07-31T12:36:09;3.97;;;2.90;;
579;SDS011;276;48.392;9.950;2023-07-31T12:38:37;9.63;;;3.00;;
579;SDS011;276;48.392;9.950;2023-07-31T12:41:02;4.33;;;3.67;;
579;SDS011;276;48.392;9.950;2023-07-31T12:43:29;3.20;;;2.90;;
579;SDS011;276;48.392;9.950;2023-07-31T12:45:54;3.13;;;2.70;;
579;SDS011;276;48.392;9.950;2023-07-31T12:48:23;2.90;;;2.50;;
579;SDS011;276;48.392;9.950;2023-07-31T12:50:53;3.33;;;2.90;;
579;SDS011;276;48.392;9.950;2023-07-31T12:53:21;4.20;;;2.50;;
579;SDS011;276;48.392;9.950;2023-07-31T12:55:49;4.93;;;2.60;;
579;SDS011;276;48.392;9.950;2023-07-31T12:58:15;4.47;;;2.93;;
579;SDS011;276;48.392;9.950;2023-07-31T13:00:43;5.00;;;2.77;;
579;SDS011;276;48.392;9.950;2023-07-31T13:03:09;2.70;;;2.50;;
579;SDS011;276;48.392;9.950;2023-07-31T13:05:35;3.40;;;2.23;;
579;SDS011;276;48.392;9.950;2023-07-31T13:08:01;5.70;;;2.50;;
579;SDS011;276;48.392;9.950;2023-07-31T13:10:29;4.53;;;3.27;;
579;SDS011;276;48.392;9.950;2023-07-31T13:12:57;3.70;;;3.30;;
579;SDS011;276;48.392;9.950;2023-07-31T13:15:23;6.30;;;3.77;;
579;SDS011;276;48.392;9.950;2023-07-31T13:17:49;3.80;;;3.23;;
579;SDS011;276;48.392;9.950;2023-07-31T13:20:14;3.27;;;2.60;;
579;SDS011;276;48.392;9.950;2023-07-31T13:22:40;3.67;;;2.87;;
579;SDS011;276;48.392;9.950;2023-07-31T13:25:06;4.80;;;2.93;;
579;SDS011;276;48.392;9.950;2023-07-31T13:27:32;2.57;;;2.37;;
579;SDS011;276;48.392;9.950;2023-07-31T13:30:02;4.60;;;3.03;;
579;SDS011;276;48.392;9.950;2023-07-31T13:32:29;7.07;;;2.93;;
579;SDS011;276;48.392;9.950;2023-07-31T13:34:57;4.93;;;2.93;;
579;SDS011;276;48.392;9.950;2023-07-31T13:37:22;6.33;;;3.20;;
579;SDS011;276;48.392;9.950;2023-07-31T13:39:48;2.90;;;2.63;;
579;SDS011;276;48.392;9.950;2023-07-31T13:42:14;4.37;;;3.13;;
579;SDS011;276;48.392;9.950;2023-07-31T13:44:39;3.93;;;2.60;;
579;SDS011;276;48.392;9.950;2023-07-31T13:47:06;3.73;;;2.90;;
579;SDS011;276;48.392;9.950;2023-07-31T13:49:32;11.43;;;3.70;;
579;SDS011;276;48.392;9.950;2023-07-31T13:51:58;6.33;;;4.00;;
579;SDS011;276;48.392;9.950;2023-07-31T13:54:26;4.73;;;2.90;;
579;SDS011;276;48.392;9.950;2023-07-31T13:56:52;5.67;;;3.03;;
579;SDS011;276;48.392;9.950;2023-07-31T13:59:18;3.23;;;2.80;;
579;SDS011;276;48.392;9.950;2023-07-31T14:01:45;3.60;;;2.77;;
579;SDS011;276;48.392;9.950;2023-07-31T14:04:14;3.67;;;3.33;;
579;SDS011;276;48.392;9.950;2023-07-31T14:06:42;2.93;;;2.73;;
579;SDS011;276;48.392;9.950;2023-07-31T14:09:08;4.27;;;3.30;;
579;SDS011;276;48.392;9.950;2023-07-31T14:11:36;3.70;;;3.30;;
579;SDS011;276;48.392;9.950;2023-07-31T14:14:02;6.23;;;3.10;;
579;SDS011;276;48.392;9.950;2023-07-31T14:16:28;4.77;;;3.40;;
579;SDS011;276;48.392;9.950;2023-07-31T14:18:54;4.90;;;3.57;;
579;SDS011;276;48.392;9.950;2023-07-31T14:21:24;3.30;;;2.90;;
579;SDS011;276;48.392;9.950;2023-07-31T14:23:52;4.33;;;2.83;;
579;SDS011;276;48.392;9.950;2023-07-31T14:26:18;3.40;;;2.57;;
579;SDS011;276;48.392;9.950;2023-07-31T14:28:46;5.13;;;2.90;;
579;SDS011;276;48.392;9.950;2023-07-31T14:31:14;4.73;;;3.10;;
579;SDS011;276;48.392;9.950;2023-07-31T14:33:42;3.30;;;3.00;;
579;SDS011;276;48.392;9.950;2023-07-31T14:36:08;2.80;;;2.40;;
579;SDS011;276;48.392;9.950;2023-07-31T14:38:35;6.60;;;3.37;;
579;SDS011;276;48.392;9.950;2023-07-31T14:41:06;3.80;;;3.40;;
579;SDS011;276;48.392;9.950;2023-07-31T14:43:34;3.80;;;2.97;;
579;SDS011;276;48.392;9.950;2023-07-31T14:46:02;3.03;;;2.73;;
579;SDS011;276;48.392;9.950;2023-07-31T14:48:30;5.17;;;3.00;;
579;SDS011;276;48.392;9.950;2023-07-31T14:50:56;4.73;;;3.20;;
579;SDS011;276;48.392;9.950;2023-07-31T14:53:25;4.33;;;3.17;;
579;SDS011;276;48.392;9.950;2023-07-31T14:55:53;3.13;;;2.93;;
579;SDS011;276;48.392;9.950;2023-07-31T14:58:18;6.83;;;3.37;;
579;SDS011;276;48.392;9.950;2023-07-31T15:00:44;6.77;;;2.87;;
579;SDS011;276;48.392;9.950;2023-07-31T15:03:12;2.67;;;2.47;;
579;SDS011;276;48.392;9.950;2023-07-31T15:05:42;4.03;;;3.10;;
579;SDS011;276;48.392;9.950;2023-07-31T15:08:10;4.23;;;3.23;;
579;SDS011;276;48.392;9.950;2023-07-31T15:10:36;3.73;;;3.03;;
579;SDS011;276;48.392;9.950;2023-07-31T15:13:02;4.83;;;2.90;;
579;SDS011;276;48.392;9.950;2023-07-31T15:15:27;4.17;;;3.33;;
579;SDS011;276;48.392;9.950;2023-07-31T15:17:53;3.10;;;2.80;;
579;SDS011;276;48.392;9.950;2023-07-31T15:20:20;3.03;;;2.57;;
579;SDS011;276;48.392;9.950;2023-07-31T15:22:45;3.17;;;2.87;;
579;SDS011;276;48.392;9.950;2023-07-31T15:25:11;5.90;;;3.47;;
579;SDS011;276;48.392;9.950;2023-07-31T15:27:37;4.33;;;2.80;;
579;SDS011;276;48.392;9.950;2023-07-31T15:30:02;3.77;;;2.63;;
579;SDS011;276;48.392;9.950;2023-07-31T15:32:31;3.60;;;3.20;;
579;SDS011;276;48.392;9.950;2023-07-31T15:34:59;2.77;;;2.40;;
579;SDS011;276;48.392;9.950;2023-07-31T15:37:25;4.20;;;3.20;;
579;SDS011;276;48.392;9.950;2023-07-31T15:39:52;5.07;;;3.40;;
579;SDS011;276;48.392;9.950;2023-07-31T15:42:20;4.13;;;3.10;;
579;SDS011;276;48.392;9.950;2023-07-31T15:44:48;6.77;;;3.37;;
579;SDS011;276;48.392;9.950;2023-07-31T15:47:14;3.13;;;2.83;;
579;SDS011;276;48.392;9.950;2023-07-31T15:49:41;5.50;;;3.53;;
579;SDS011;276;48.392;9.950;2023-07-31T15:52:07;5.73;;;3.07;;
579;SDS011;276;48.392;9.950;2023-07-31T15:54:33;3.70;;;3.03;;
579;SDS011;276;48.392;9.950;2023-07-31T15:56:58;4.70;;;3.57;;
579;SDS011;276;48.392;9.950;2023-07-31T15:59:26;4.00;;;3.60;;
579;SDS011;276;48.392;9.950;2023-07-31T16:01:54;3.20;;;2.50;;
579;SDS011;276;48.392;9.950;2023-07-31T16:04:20;3.90;;;3.40;;
579;SDS011;276;48.392;9.950;2023-07-31T16:06:47;3.67;;;3.10;;
579;SDS011;276;48.392;9.950;2023-07-31T16:09:13;4.10;;;2.93;;
579;SDS011;276;48.392;9.950;2023-07-31T16:11:41;4.80;;;3.27;;